createdAt,value
2022-08-29T00:01:10.351Z,99.90
2022-08-29T00:03:37.539Z,99.90
2022-08-29T00:06:05.175Z,99.90
2022-08-29T00:08:32.129Z,99.90
2022-08-29T00:10:59.210Z,99.90
2022-08-29T00:13:27.664Z,99.90
2022-08-29T00:15:54.698Z,99.90
2022-08-29T00:18:21.652Z,99.90
2022-08-29T00:20:48.843Z,99.90
2022-08-29T00:23:15.940Z,99.90
2022-08-29T00:25:43.147Z,99.90
2022-08-29T00:28:10.166Z,99.90
2022-08-29T00:30:37.597Z,99.90
2022-08-29T00:33:04.628Z,99.90
2022-08-29T00:35:35.287Z,99.90
2022-08-29T00:38:03.697Z,99.90
2022-08-29T00:40:51.163Z,99.90
2022-08-29T00:43:24.760Z,99.90
2022-08-29T00:46:09.299Z,99.90
2022-08-29T00:48:38.383Z,99.90
2022-08-29T00:51:09.225Z,99.90
2022-08-29T00:53:40.064Z,99.90
2022-08-29T00:56:08.729Z,99.90
2022-08-29T00:58:41.584Z,99.90
2022-08-29T01:01:09.160Z,99.90
2022-08-29T01:03:42.681Z,99.90
2022-08-29T01:06:11.415Z,99.90
2022-08-29T01:08:38.373Z,99.90
2022-08-29T01:11:24.116Z,99.90
2022-08-29T01:13:53.041Z,99.90
2022-08-29T01:16:21.234Z,99.90
2022-08-29T01:18:53.454Z,99.90
2022-08-29T01:21:36.593Z,99.90
2022-08-29T01:24:15.479Z,99.90
2022-08-29T01:26:44.628Z,99.90
2022-08-29T01:29:12.062Z,99.90
2022-08-29T01:31:56.077Z,99.90
2022-08-29T01:34:27.410Z,99.90
2022-08-29T01:37:05.960Z,99.90
2022-08-29T01:39:36.068Z,99.90
2022-08-29T01:42:13.146Z,99.90
2022-08-29T01:44:41.701Z,99.90
2022-08-29T01:47:09.761Z,99.90
2022-08-29T01:49:40.833Z,99.90
2022-08-29T01:52:08.385Z,99.90
2022-08-29T01:54:35.498Z,99.90
2022-08-29T01:57:02.809Z,99.90
2022-08-29T01:59:31.291Z,99.90
2022-08-29T02:02:09.341Z,99.90
2022-08-29T02:04:36.379Z,99.90
2022-08-29T02:07:03.960Z,99.90
2022-08-29T02:09:31.098Z,99.90
2022-08-29T02:12:00.332Z,99.90
2022-08-29T02:14:27.292Z,99.90
2022-08-29T02:16:54.200Z,99.90
2022-08-29T02:19:21.337Z,99.90
2022-08-29T02:21:48.368Z,99.90
2022-08-29T02:24:26.281Z,99.90
2022-08-29T02:26:56.167Z,99.90
2022-08-29T02:29:24.281Z,99.90
2022-08-29T02:31:51.975Z,99.90
2022-08-29T02:34:19.185Z,99.90
2022-08-29T02:36:49.151Z,99.90
2022-08-29T02:39:16.894Z,99.90
2022-08-29T02:41:44.449Z,99.90
2022-08-29T02:44:11.887Z,99.90
2022-08-29T02:46:39.020Z,99.90
2022-08-29T02:49:06.520Z,99.90
2022-08-29T02:51:35.530Z,99.90
2022-08-29T02:54:03.644Z,99.90
2022-08-29T02:56:31.163Z,99.90
2022-08-29T02:58:58.680Z,99.90
2022-08-29T03:01:26.322Z,99.90
2022-08-29T03:03:53.830Z,99.90
2022-08-29T03:06:21.352Z,99.90
2022-08-29T03:08:48.568Z,99.90
2022-08-29T03:11:17.389Z,99.90
2022-08-29T03:13:45.556Z,99.90
2022-08-29T03:16:13.728Z,99.90
2022-08-29T03:18:40.998Z,99.90
2022-08-29T03:21:20.424Z,99.90
2022-08-29T03:23:49.376Z,99.90
2022-08-29T03:26:16.929Z,99.90
2022-08-29T03:28:44.388Z,99.90
2022-08-29T03:31:11.630Z,99.90
2022-08-29T03:33:39.291Z,99.90
2022-08-29T03:36:13.698Z,99.90
2022-08-29T03:38:43.751Z,99.90
2022-08-29T03:41:11.167Z,99.90
2022-08-29T03:43:38.549Z,99.90
2022-08-29T03:46:05.698Z,99.90
2022-08-29T03:48:33.874Z,99.90
2022-08-29T03:51:01.010Z,99.90
2022-08-29T03:53:28.375Z,99.90
2022-08-29T03:55:57.753Z,99.90
2022-08-29T03:58:25.254Z,99.90
2022-08-29T04:00:52.343Z,99.90
2022-08-29T04:03:21.954Z,99.90
2022-08-29T04:05:52.300Z,99.90
2022-08-29T04:08:22.397Z,99.90
2022-08-29T04:10:49.314Z,99.90
2022-08-29T04:13:16.232Z,99.90
2022-08-29T04:15:43.827Z,99.90
2022-08-29T04:18:11.758Z,99.90
2022-08-29T04:20:44.981Z,99.90
2022-08-29T04:23:13.378Z,99.90
2022-08-29T04:25:43.314Z,99.90
2022-08-29T04:28:12.876Z,99.90
2022-08-29T04:30:49.917Z,99.90
2022-08-29T04:33:22.754Z,99.90
2022-08-29T04:35:53.131Z,99.90
2022-08-29T04:38:22.096Z,99.90
2022-08-29T04:40:48.981Z,99.90
2022-08-29T04:43:16.994Z,99.90
2022-08-29T04:45:43.991Z,99.90
2022-08-29T04:48:11.977Z,99.90
2022-08-29T04:50:41.925Z,99.90
2022-08-29T04:53:08.887Z,99.90
2022-08-29T04:55:41.939Z,99.90
2022-08-29T04:58:14.427Z,99.90
2022-08-29T05:00:46.108Z,99.90
2022-08-29T05:03:13.088Z,99.90
2022-08-29T05:05:41.146Z,99.90
2022-08-29T05:08:11.526Z,99.90
2022-08-29T05:10:38.994Z,99.90
2022-08-29T05:13:05.984Z,99.90
2022-08-29T05:15:34.996Z,99.90
2022-08-29T05:18:05.188Z,99.90
2022-08-29T05:20:35.357Z,99.90
2022-08-29T05:23:02.383Z,99.90
2022-08-29T05:25:32.443Z,99.90
2022-08-29T05:28:02.918Z,99.90
2022-08-29T05:30:35.010Z,99.90
2022-08-29T05:33:02.796Z,99.90
2022-08-29T05:35:32.863Z,99.90
2022-08-29T05:38:07.108Z,99.90
2022-08-29T05:40:38.141Z,99.90
2022-08-29T05:43:07.588Z,99.90
2022-08-29T05:45:34.482Z,99.90
2022-08-29T05:48:06.973Z,99.90
2022-08-29T05:50:39.816Z,99.90
2022-08-29T05:53:06.798Z,99.90
2022-08-29T05:55:42.846Z,99.90
2022-08-29T05:58:11.765Z,99.90
2022-08-29T06:00:43.941Z,99.90
2022-08-29T06:03:11.669Z,99.90
2022-08-29T06:05:39.500Z,99.90
2022-08-29T06:08:07.624Z,99.90
2022-08-29T06:10:39.296Z,99.90
2022-08-29T06:13:06.176Z,99.90
2022-08-29T06:15:33.689Z,99.90
2022-08-29T06:18:00.693Z,99.90
2022-08-29T06:20:27.770Z,99.90
2022-08-29T06:22:54.767Z,99.90
2022-08-29T06:25:38.555Z,99.90
2022-08-29T06:28:06.452Z,99.90
2022-08-29T06:30:34.025Z,99.90
2022-08-29T06:33:02.207Z,99.90
2022-08-29T06:35:29.489Z,99.90
2022-08-29T06:37:56.470Z,99.90
2022-08-29T06:40:23.513Z,99.90
2022-08-29T06:42:50.584Z,99.90
2022-08-29T06:45:17.796Z,99.90
2022-08-29T06:47:47.852Z,99.90
2022-08-29T06:50:16.451Z,99.90
2022-08-29T06:52:43.559Z,99.90
2022-08-29T06:55:14.820Z,99.90
2022-08-29T06:57:43.025Z,99.90
2022-08-29T07:00:22.388Z,99.90
2022-08-29T07:02:51.707Z,99.90
2022-08-29T07:05:20.250Z,99.90
2022-08-29T07:07:47.186Z,99.90
2022-08-29T07:10:18.698Z,99.90
2022-08-29T07:12:49.866Z,99.90
2022-08-29T07:15:16.912Z,99.90
2022-08-29T07:17:43.871Z,99.90
2022-08-29T07:20:11.401Z,99.90
2022-08-29T07:22:39.340Z,99.90
2022-08-29T07:25:08.410Z,99.90
2022-08-29T07:27:35.721Z,99.90
2022-08-29T07:30:05.555Z,99.90
2022-08-29T07:32:32.723Z,99.90
2022-08-29T07:35:00.747Z,99.90
2022-08-29T07:37:27.913Z,99.90
2022-08-29T07:39:56.830Z,99.40
2022-08-29T07:42:25.921Z,99.50
2022-08-29T07:44:55.017Z,98.20
2022-08-29T07:47:26.654Z,97.70
2022-08-29T07:49:53.708Z,97.20
2022-08-29T07:52:20.923Z,96.70
2022-08-29T07:54:49.889Z,97.00
2022-08-29T07:57:18.330Z,96.30
2022-08-29T07:59:45.412Z,95.60
2022-08-29T08:02:13.581Z,95.70
2022-08-29T08:04:40.863Z,96.00
2022-08-29T08:07:14.000Z,95.20
2022-08-29T08:09:44.961Z,94.90
2022-08-29T08:12:12.464Z,94.40
2022-08-29T08:14:39.444Z,94.60
2022-08-29T08:17:06.497Z,94.50
2022-08-29T08:19:34.586Z,94.40
2022-08-29T08:22:02.489Z,94.50
2022-08-29T08:24:29.424Z,94.10
2022-08-29T08:26:58.115Z,93.80
2022-08-29T08:29:25.171Z,92.50
2022-08-29T08:31:52.636Z,92.10
2022-08-29T08:34:20.223Z,92.00
2022-08-29T08:36:47.348Z,91.70
2022-08-29T08:39:16.430Z,91.20
2022-08-29T08:41:54.813Z,90.70
2022-08-29T08:44:21.746Z,90.70
2022-08-29T08:46:52.621Z,90.40
2022-08-29T08:49:39.212Z,89.90
2022-08-29T08:52:16.374Z,88.90
2022-08-29T08:55:02.050Z,87.30
2022-08-29T08:57:44.469Z,86.60
2022-08-29T09:00:14.672Z,85.80
2022-08-29T09:03:05.430Z,85.90
2022-08-29T09:05:49.234Z,84.00
2022-08-29T09:08:35.116Z,84.40
2022-08-29T09:11:36.555Z,83.30
2022-08-29T09:16:58.979Z,81.10
2022-08-29T09:19:27.048Z,80.20
2022-08-29T09:22:08.264Z,78.90
2022-08-29T09:24:51.323Z,78.40
2022-08-29T09:27:24.766Z,77.80
2022-08-29T09:30:09.270Z,77.60
2022-08-29T09:33:00.832Z,77.20
2022-08-29T09:35:51.971Z,76.50
2022-08-29T09:38:25.295Z,76.50
2022-08-29T09:40:58.823Z,77.00
2022-08-29T09:43:28.671Z,77.90
2022-08-29T09:46:07.270Z,78.00
2022-08-29T09:48:41.170Z,77.90
2022-08-29T09:51:24.683Z,78.10
2022-08-29T09:54:10.001Z,77.50
2022-08-29T09:56:48.285Z,77.50
2022-08-29T09:59:23.132Z,77.00
2022-08-29T10:02:28.446Z,76.80
2022-08-29T10:05:02.129Z,76.40
2022-08-29T10:07:55.664Z,75.50
2022-08-29T10:10:27.355Z,75.70
2022-08-29T10:13:21.277Z,75.80
2022-08-29T10:15:59.229Z,75.50
2022-08-29T10:18:51.089Z,75.60
2022-08-29T10:21:20.436Z,74.80
2022-08-29T10:24:15.941Z,75.10
2022-08-29T10:26:55.003Z,74.20
2022-08-29T10:29:36.995Z,73.80
2022-08-29T10:32:29.291Z,72.80
2022-08-29T10:35:15.772Z,72.80
2022-08-29T10:37:57.453Z,72.30
2022-08-29T10:40:47.458Z,72.00
2022-08-29T10:44:08.569Z,72.90
2022-08-29T10:47:02.506Z,73.00
2022-08-29T10:49:31.508Z,73.50
2022-08-29T10:52:23.230Z,72.90
2022-08-29T10:55:11.047Z,72.20
2022-08-29T10:58:01.162Z,70.30
2022-08-29T11:00:46.644Z,71.40
2022-08-29T11:03:40.460Z,71.20
2022-08-29T11:06:33.143Z,71.10
2022-08-29T11:09:18.875Z,69.90
2022-08-29T11:12:04.093Z,69.50
2022-08-29T11:14:43.828Z,70.60
2022-08-29T11:17:13.242Z,69.30
2022-08-29T11:20:11.768Z,69.50
2022-08-29T11:23:01.808Z,69.20
2022-08-29T11:25:30.159Z,68.90
2022-08-29T11:28:28.414Z,69.60
2022-08-29T11:31:16.017Z,69.10
2022-08-29T11:34:09.659Z,68.00
2022-08-29T11:36:43.543Z,68.40
2022-08-29T11:39:41.162Z,68.40
2022-08-29T11:42:11.469Z,67.90
2022-08-29T11:44:55.296Z,67.50
2022-08-29T11:47:41.463Z,67.60
2022-08-29T11:50:15.279Z,68.20
2022-08-29T11:53:06.121Z,67.60
2022-08-29T11:55:37.235Z,67.60
2022-08-29T11:58:25.159Z,67.90
2022-08-29T12:01:00.147Z,67.90
2022-08-29T12:03:37.443Z,67.30
2022-08-29T12:06:24.240Z,67.00
2022-08-29T12:09:14.174Z,66.50
2022-08-29T12:12:06.266Z,67.10
2022-08-29T12:14:38.062Z,67.00
2022-08-29T12:17:51.339Z,66.50
2022-08-29T12:20:32.237Z,65.30
2022-08-29T12:23:15.342Z,65.80
2022-08-29T12:26:15.962Z,65.50
2022-08-29T12:28:58.217Z,65.40
2022-08-29T12:32:17.924Z,65.30
2022-08-29T12:35:11.066Z,66.10
2022-08-29T12:38:09.256Z,66.30
2022-08-29T12:40:57.199Z,65.80
2022-08-29T12:43:44.009Z,68.00
2022-08-29T12:46:26.298Z,69.10
2022-08-29T12:49:23.162Z,70.00
2022-08-29T12:52:05.439Z,69.90
2022-08-29T12:54:39.411Z,71.20
2022-08-29T12:57:09.150Z,71.20
2022-08-29T12:59:45.320Z,71.40
2022-08-29T13:02:35.111Z,71.50
2022-08-29T13:05:19.907Z,72.40
2022-08-29T13:08:11.117Z,72.80
2022-08-29T13:11:13.097Z,73.00
2022-08-29T13:13:43.209Z,73.30
2022-08-29T13:16:24.150Z,72.80
2022-08-29T13:19:09.998Z,73.20
2022-08-29T13:21:38.922Z,73.10
2022-08-29T13:24:24.370Z,73.50
2022-08-29T13:27:04.867Z,73.10
2022-08-29T13:29:41.983Z,73.60
2022-08-29T13:32:26.996Z,74.40
2022-08-29T13:35:03.322Z,74.30
2022-08-29T13:37:36.269Z,75.70
2022-08-29T13:40:41.901Z,75.80
2022-08-29T13:43:37.331Z,75.90
2022-08-29T13:46:15.536Z,75.90
2022-08-29T13:48:44.148Z,75.60
2022-08-29T13:51:11.515Z,75.10
2022-08-29T13:53:38.848Z,75.30
2022-08-29T13:56:22.138Z,74.80
2022-08-29T13:58:51.296Z,75.00
2022-08-29T14:01:30.429Z,75.00
2022-08-29T14:04:15.257Z,75.30
2022-08-29T14:06:50.880Z,75.70
2022-08-29T14:09:35.052Z,76.60
2022-08-29T14:12:02.772Z,77.00
2022-08-29T14:14:29.963Z,77.00
2022-08-29T14:17:00.041Z,77.50
2022-08-29T14:19:31.017Z,77.50
2022-08-29T14:22:02.160Z,77.70
2022-08-29T14:24:33.987Z,77.30
2022-08-29T14:27:04.473Z,77.20
2022-08-29T14:29:35.007Z,76.80
2022-08-29T14:32:05.059Z,77.20
2022-08-29T14:34:34.458Z,77.60
2022-08-29T14:37:05.169Z,77.50
2022-08-29T14:39:33.340Z,78.30
2022-08-29T14:42:04.024Z,79.10
2022-08-29T14:44:34.078Z,78.30
2022-08-29T14:47:00.985Z,78.50
2022-08-29T14:49:27.999Z,79.50
2022-08-29T14:51:54.948Z,81.30
2022-08-29T14:54:21.892Z,81.00
2022-08-29T14:56:50.105Z,80.40
2022-08-29T14:59:19.519Z,80.10
2022-08-29T15:01:52.673Z,79.90
2022-08-29T15:04:36.202Z,81.30
2022-08-29T15:07:10.297Z,80.90
2022-08-29T15:09:38.475Z,80.90
2022-08-29T15:12:05.952Z,81.00
2022-08-29T15:14:34.551Z,80.20
2022-08-29T15:17:02.464Z,81.30
2022-08-29T15:22:16.910Z,81.30
2022-08-29T15:24:44.356Z,82.30
2022-08-29T15:27:12.546Z,82.30
2022-08-29T15:29:40.961Z,82.40
2022-08-29T15:32:08.406Z,82.80
2022-08-29T15:34:35.654Z,83.70
2022-08-29T15:37:05.627Z,83.70
2022-08-29T15:39:32.653Z,83.80
2022-08-29T15:42:02.424Z,83.90
2022-08-29T15:44:29.673Z,83.80
2022-08-29T15:46:57.474Z,84.80
2022-08-29T15:49:26.580Z,85.50
2022-08-29T15:51:54.875Z,85.60
2022-08-29T15:54:23.180Z,86.00
2022-08-29T15:56:50.727Z,86.00
2022-08-29T15:59:18.268Z,85.90
2022-08-29T16:01:53.855Z,86.70
2022-08-29T16:04:24.748Z,87.50
2022-08-29T16:06:52.815Z,87.80
2022-08-29T16:09:20.956Z,87.60
2022-08-29T16:11:51.464Z,89.00
2022-08-29T16:14:57.540Z,88.80
2022-08-29T16:17:07.198Z,89.50
2022-08-29T16:19:37.387Z,88.60
2022-08-29T16:22:06.610Z,89.00
2022-08-29T16:24:39.213Z,89.00
2022-08-29T16:27:07.135Z,89.30
2022-08-29T16:29:35.140Z,89.90
2022-08-29T16:32:02.359Z,90.20
2022-08-29T16:34:30.359Z,90.10
2022-08-29T16:37:03.196Z,90.40
2022-08-29T16:39:31.220Z,90.40
2022-08-29T16:41:59.146Z,90.50
2022-08-29T16:44:26.354Z,90.40
2022-08-29T16:46:53.413Z,90.50
2022-08-29T16:49:20.416Z,90.80
2022-08-29T16:51:47.605Z,91.10
2022-08-29T16:54:16.184Z,91.30
2022-08-29T16:56:45.664Z,91.30
2022-08-29T16:59:13.625Z,91.40
2022-08-29T17:01:45.525Z,91.50
2022-08-29T17:04:20.396Z,91.70
2022-08-29T17:06:50.605Z,92.00
2022-08-29T17:09:20.485Z,92.00
2022-08-29T17:11:48.080Z,92.00
2022-08-29T17:14:16.491Z,92.30
2022-08-29T17:16:46.017Z,92.20
2022-08-29T17:19:14.923Z,92.20
2022-08-29T17:21:43.542Z,92.20
2022-08-29T17:24:11.132Z,92.50
2022-08-29T17:26:40.800Z,92.50
2022-08-29T17:29:09.545Z,92.60
2022-08-29T17:31:38.662Z,93.00
2022-08-29T17:34:07.518Z,92.70
2022-08-29T17:36:40.686Z,92.90
2022-08-29T17:39:11.284Z,92.90
2022-08-29T17:41:41.637Z,93.10
2022-08-29T17:44:11.909Z,93.60
2022-08-29T17:46:38.954Z,93.80
2022-08-29T17:49:08.334Z,93.90
2022-08-29T17:51:35.822Z,93.80
2022-08-29T17:54:06.918Z,93.80
2022-08-29T17:56:55.615Z,94.30
2022-08-29T17:59:24.260Z,94.40
2022-08-29T18:01:51.263Z,94.60
2022-08-29T18:04:19.676Z,94.70
2022-08-29T18:06:47.286Z,95.00
2022-08-29T18:09:14.768Z,95.40
2022-08-29T18:11:45.924Z,95.20
2022-08-29T18:14:13.232Z,95.00
2022-08-29T18:16:40.274Z,95.00
2022-08-29T18:19:07.982Z,95.00
2022-08-29T18:21:36.116Z,95.60
2022-08-29T18:24:04.001Z,95.80
2022-08-29T18:26:33.707Z,96.00
2022-08-29T18:29:01.340Z,95.70
2022-08-29T18:31:28.335Z,95.90
2022-08-29T18:34:02.590Z,96.30
2022-08-29T18:36:35.648Z,96.50
2022-08-29T18:39:05.427Z,96.80
2022-08-29T18:41:33.096Z,97.10
2022-08-29T18:44:01.402Z,97.50
2022-08-29T18:46:29.132Z,98.00
2022-08-29T18:48:57.565Z,98.30
2022-08-29T18:51:26.961Z,98.30
2022-08-29T18:53:58.243Z,98.00
2022-08-29T18:56:26.777Z,98.20
2022-08-29T18:58:58.797Z,98.30
2022-08-29T19:01:28.698Z,98.80
2022-08-29T19:03:58.053Z,99.00
2022-08-29T19:06:26.112Z,99.00
2022-08-29T19:08:54.270Z,99.40
2022-08-29T19:11:21.321Z,99.50
2022-08-29T19:13:52.278Z,99.70
2022-08-29T19:16:21.233Z,99.80
2022-08-29T19:18:48.517Z,99.80
2022-08-29T19:21:15.451Z,99.90
2022-08-29T19:23:45.614Z,99.70
2022-08-29T19:26:29.911Z,99.90
2022-08-29T19:28:59.460Z,99.90
2022-08-29T19:31:27.854Z,99.90
2022-08-29T19:33:55.220Z,99.90
2022-08-29T19:36:23.556Z,99.90
2022-08-29T19:38:51.147Z,99.90
2022-08-29T19:41:18.690Z,99.90
2022-08-29T19:43:46.154Z,99.90
2022-08-29T19:46:18.078Z,99.90
2022-08-29T19:48:48.606Z,99.90
2022-08-29T19:51:21.259Z,99.90
2022-08-29T19:53:48.627Z,99.90
2022-08-29T19:56:17.902Z,99.90
2022-08-29T19:58:46.250Z,99.90
2022-08-29T20:01:13.285Z,99.90
2022-08-29T20:03:42.053Z,99.90
2022-08-29T20:06:09.940Z,99.90
2022-08-29T20:08:41.642Z,99.90
2022-08-29T20:11:21.186Z,99.90
2022-08-29T20:13:51.204Z,99.90
2022-08-29T20:16:22.684Z,99.90
2022-08-29T20:18:50.708Z,99.90
2022-08-29T20:21:19.541Z,99.90
2022-08-29T20:23:49.869Z,99.90
2022-08-29T20:26:19.297Z,99.90
2022-08-29T20:28:47.509Z,99.90
2022-08-29T20:31:16.763Z,99.90
2022-08-29T20:33:45.012Z,99.90
2022-08-29T20:36:30.801Z,99.90
2022-08-29T20:39:00.628Z,99.90
2022-08-29T20:41:28.619Z,99.90
2022-08-29T20:43:55.622Z,99.90
2022-08-29T20:46:22.610Z,99.90
2022-08-29T20:48:49.682Z,99.90
2022-08-29T20:51:16.614Z,99.90
2022-08-29T20:53:43.862Z,99.90
2022-08-29T20:56:11.277Z,99.90
2022-08-29T20:58:38.375Z,99.90
2022-08-29T21:01:05.609Z,99.90
2022-08-29T21:03:52.775Z,99.90
2022-08-29T21:06:20.515Z,99.90
2022-08-29T21:08:48.843Z,99.90
2022-08-29T21:11:16.392Z,99.90
2022-08-29T21:13:43.590Z,99.90
2022-08-29T21:16:11.370Z,99.90
2022-08-29T21:18:39.163Z,99.90
2022-08-29T21:21:06.536Z,99.90
2022-08-29T21:23:34.427Z,99.90
2022-08-29T21:26:02.076Z,99.90
2022-08-29T21:28:32.870Z,99.90
2022-08-29T21:31:08.368Z,99.90
2022-08-29T21:33:40.393Z,99.90
2022-08-29T21:36:15.404Z,99.90
2022-08-29T21:38:42.361Z,99.90
2022-08-29T21:41:11.055Z,99.90
2022-08-29T21:43:40.688Z,99.90
2022-08-29T21:46:19.513Z,99.90
2022-08-29T21:48:47.138Z,99.90
2022-08-29T21:51:18.715Z,99.90
2022-08-29T21:53:47.532Z,99.90
2022-08-29T21:56:15.052Z,99.90
2022-08-29T21:58:42.280Z,99.90
2022-08-29T22:01:12.254Z,99.90
2022-08-29T22:03:39.754Z,99.90
2022-08-29T22:06:08.346Z,99.90
2022-08-29T22:08:38.556Z,99.90
2022-08-29T22:11:22.132Z,99.90
2022-08-29T22:13:50.795Z,99.90
2022-08-29T22:16:30.164Z,99.90
2022-08-29T22:19:12.498Z,99.90
2022-08-29T22:21:46.801Z,99.90
2022-08-29T22:24:16.458Z,99.90
2022-08-29T22:26:44.768Z,99.90
2022-08-29T22:29:14.224Z,99.90
2022-08-29T22:31:42.476Z,99.90
2022-08-29T22:34:11.482Z,99.90
2022-08-29T22:36:38.466Z,99.90
2022-08-29T22:39:05.479Z,99.90
2022-08-29T22:41:32.831Z,99.90
2022-08-29T22:44:47.151Z,99.90
2022-08-29T22:46:48.883Z,99.90
2022-08-29T22:49:16.121Z,99.90
2022-08-29T22:51:43.018Z,99.90
2022-08-29T22:54:28.308Z,99.90
2022-08-29T22:56:55.294Z,99.90
2022-08-29T22:59:22.819Z,99.90
2022-08-29T23:01:49.791Z,99.90
2022-08-29T23:04:16.916Z,99.90
2022-08-29T23:06:44.071Z,99.90
2022-08-29T23:09:11.037Z,99.90
2022-08-29T23:11:38.282Z,99.90
2022-08-29T23:14:06.504Z,99.90
2022-08-29T23:16:35.690Z,99.90
2022-08-29T23:19:03.476Z,99.90
2022-08-29T23:21:31.639Z,99.90
2022-08-29T23:23:59.246Z,99.90
2022-08-29T23:26:27.211Z,99.90
2022-08-29T23:28:55.030Z,99.90
2022-08-29T23:31:23.032Z,99.90
2022-08-29T23:33:50.684Z,99.90
2022-08-29T23:36:18.728Z,99.90
2022-08-29T23:38:46.033Z,99.90
2022-08-29T23:41:13.728Z,99.90
2022-08-29T23:43:41.323Z,99.90
2022-08-29T23:46:08.709Z,99.90
2022-08-29T23:48:35.992Z,99.90
2022-08-29T23:51:08.944Z,99.90
2022-08-29T23:53:36.248Z,99.90
2022-08-29T23:56:12.484Z,99.90
2022-08-29T23:58:40.139Z,99.90
